Maersk Nimes — VRFO7 — position and weather

sailwx.info

Track history (hours):
 
Tides and Currents Weather Stations Pressure Air Temp Water Temp Dewpoint Dewpoint Depression Visibility Wind Speed Wind Dir Waves Ship Positions

Maersk Nimes

Last reported at 2015-Jul-04 13:33 UTC. Time now 2015-Jul-04 13:37 UTC.
Position N 59°58' E 029°47'.

Length 210 m; draft 10.6 m.

Type: Cargo ship. MMSI: 477559200.

Date/timePositionNaut miles runAvg speedWind from/ knotsBaromVisibWave heightAir tempDewpointWater temp
2015-Jul-04 13:33N 59°58' E 029°47'9 8.6
2015-Jul-04 12:33N 60°01' E 029°31'6410.7
2015-Jul-04 06:33N 60°03' E 027°23'1212.6
2015-Jul-04 05:33N 59°58' E 027°00'1312.8
2015-Jul-04 04:32N 59°59' E 026°34'1513.0
2015-Jul-04 03:25N 59°55' E 026°06'1619.3
2015-Jul-04 02:33N 59°51' E 025°34'4920.6
2015-Jul-04 00:12N 59°39' E 024°01'1420.6
2015-Jul-03 23:32N 59°34' E 023°36'2020.6
2015-Jul-03 22:33N 59°27' E 022°58'2020.3
2015-Jul-03 21:33N 59°18' E 022°23'2620.4
2015-Jul-03 20:18N 59°03' E 021°42'14120.6
2015-Jul-03 13:27N 57°10' E 019°04'1920.5
2015-Jul-03 12:33N 56°55' E 018°43'2020.2
2015-Jul-03 11:33N 56°42' E 018°15'2120.3
2015-Jul-03 10:32N 56°29' E 017°46'6020.2
2015-Jul-03 07:32N 55°54' E 016°17'2020.2
2015-Jul-03 06:33N 55°44' E 015°46'2020.5
2015-Jul-03 05:34N 55°35' E 015°14'2020.4
2015-Jul-03 04:34N 55°26' E 014°42'2020.3
2015-Jul-03 03:34N 55°10' E 014°20'1919.3
2015-Jul-03 02:34N 54°59' E 013°52'2020.0
2015-Jul-03 01:34N 54°52' E 013°19'2019.7
2015-Jul-03 00:34N 54°46' E 012°47'1818.4
2015-Jul-02 23:34N 54°37' E 012°19'1413.9
2015-Jul-02 22:34N 54°25' E 012°06'1818.5
2015-Jul-02 21:34N 54°28' E 011°35'1818.4
2015-Jul-02 20:34N 54°35' E 011°05'1515.0
2015-Jul-02 19:34N 54°46' E 010°48'1616.0
2015-Jul-02 18:33N 55°01' E 010°59'1515.4
2015-Jul-02 17:33N 55°16' E 011°04'1817.8
2015-Jul-02 16:31N 55°33' E 010°50'1717.5
2015-Jul-02 15:33N 55°50' E 010°48'3718.4
2015-Jul-02 13:33N 56°20' E 011°25'1919.0
2015-Jul-02 12:33N 56°36' E 011°42'1817.8
2015-Jul-02 11:33N 56°54' E 011°46'1919.1
2015-Jul-02 10:33N 57°12' E 011°34'1918.8
2015-Jul-02 09:33N 57°29' E 011°19'1918.7
2015-Jul-02 08:33N 57°42' E 010°54'1414.1
2015-Jul-02 07:33N 57°47' E 010°29'1616.4
2015-Jul-02 06:33N 57°46' E 009°59'1716.7
2015-Jul-02 05:33N 57°43' E 009°28'1918.8
2015-Jul-02 04:33N 57°33' E 008°58'1919.1
2015-Jul-02 03:33N 57°21' E 008°30'14617.6
2015-Jul-01 19:18N 55°08' E 006°47'3318.9
2015-Jul-01 17:33N 54°37' E 007°08'1918.7
2015-Jul-01 16:33N 54°21' E 007°23'1817.7
2015-Jul-01 15:33N 54°04' E 007°35'2013.8
2015-Jul-01 14:07N 53°51' E 008°01'915.2
2015-Jul-01 13:33N 53°46' E 008°12'1414.1
2015-Jul-01 12:34N 53°37' E 008°30'1 1.4
2015-Jul-01 11:29N 53°35' E 008°31'0 0.0
2015-Jul-01 10:33N 53°35' E 008°31'0 0.0
2015-Jul-01 09:23N 53°35' E 008°31'0 0.0
2015-Jul-01 08:32N 53°35' E 008°31'0 0.0
2015-Jul-01 07:32N 53°35' E 008°31'0 0.0
2015-Jul-01 06:05N 53°35' E 008°31'0 0.0
2015-Jul-01 05:33N 53°35' E 008°31'0 0.0
2015-Jul-01 04:24N 53°35' E 008°31'0 0.0
2015-Jul-01 03:33N 53°35' E 008°31'0 0.0
2015-Jul-01 02:29N 53°35' E 008°31'0 0.0
2015-Jul-01 01:33N 53°35' E 008°31'0 0.0
2015-Jul-01 00:33N 53°35' E 008°31'0 0.0
2015-Jun-30 23:33N 53°35' E 008°31'0 0.0
2015-Jun-30 22:33N 53°35' E 008°31'0 0.0
2015-Jun-30 21:22N 53°35' E 008°31'0 0.0
2015-Jun-30 20:22N 53°35' E 008°31'0 0.0
2015-Jun-30 18:27N 53°35' E 008°31'0 0.0
2015-Jun-30 17:33N 53°35' E 008°31'0 0.0
2015-Jun-30 16:33N 53°35' E 008°31'0 0.0
2015-Jun-30 15:25N 53°35' E 008°31'0 0.0
2015-Jun-30 14:24N 53°35' E 008°31'0 0.0
2015-Jun-30 13:34N 53°35' E 008°31'1 1.0
2015-Jun-30 12:33N 53°36' E 008°30'1211.9
2015-Jun-30 11:33N 53°44' E 008°15'23 6.9
2015-Jun-30 08:10N 53°54' E 007°39'5 7.5
2015-Jun-30 07:34N 53°58' E 007°38'9 8.7
2015-Jun-30 06:33N 54°01' E 007°52'1010.4
2015-Jun-30 05:34N 54°01' E 008°09'1212.0
2015-Jun-30 04:34N 53°59' E 008°30'1413.6
2015-Jun-30 03:34N 53°50' E 008°48'1413.8
2015-Jun-30 02:33N 53°53' E 009°11'1312.8
2015-Jun-30 01:33N 53°44' E 009°27'1110.9
2015-Jun-30 00:34N 53°35' E 009°37'9 9.3
2015-Jun-29 23:33N 53°33' E 009°52'5 4.5
2015-Jun-29 22:33N 53°32' E 009°60'0 0.0
2015-Jun-29 21:32N 53°32' E 009°60'0 0.0
2015-Jun-29 20:28N 53°32' E 009°60'0 0.0
2015-Jun-29 19:32N 53°32' E 009°60'0 0.0
2015-Jun-29 18:32N 53°32' E 009°60'0 0.0
2015-Jun-29 17:32N 53°32' E 009°60'0 0.0
2015-Jun-29 16:32N 53°32' E 009°60'0 0.0
2015-Jun-29 15:32N 53°32' E 009°60'0 0.0
2015-Jun-29 14:32N 53°32' E 009°60'0 0.0
2015-Jun-29 13:32N 53°32' E 009°60'0 0.0
2015-Jun-29 12:28N 53°32' E 009°60'0 0.0
2015-Jun-29 11:32N 53°32' E 009°60'0 0.0
2015-Jun-29 10:32N 53°32' E 009°60'0 0.0
2015-Jun-29 09:29N 53°32' E 009°60'0 0.0
2015-Jun-29 05:28N 53°32' E 009°60'0 0.0
2015-Jun-29 04:28N 53°32' E 009°60'0 0.0
2015-Jun-29 03:29N 53°32' E 009°60'0 0.0
2015-Jun-29 02:22N 53°32' E 009°60'0 0.0
2015-Jun-29 01:32N 53°32' E 009°60'0 0.0
2015-Jun-29 00:32N 53°32' E 009°60'2 1.6
2015-Jun-28 23:33N 53°33' E 009°57'9 9.4
2015-Jun-28 22:33N 53°34' E 009°42'1312.6
2015-Jun-28 21:33N 53°43' E 009°28'1514.5
2015-Jun-28 20:33N 53°53' E 009°09'1313.4
2015-Jun-28 19:33N 53°51' E 008°47'1515.4
2015-Jun-28 18:33N 53°59' E 008°24'1212.4
2015-Jun-28 17:33N 53°59' E 008°03'4511.1
2015-Jun-28 13:31N 53°49' E 006°50'1111.7
2015-Jun-28 12:32N 53°46' E 006°31'1211.5
2015-Jun-28 11:32N 53°43' E 006°12'1111.4
2015-Jun-28 10:33N 53°40' E 005°54'1111.5
2015-Jun-28 09:33N 53°36' E 005°36'1111.4
2015-Jun-28 08:33N 53°32' E 005°18'1111.4
2015-Jun-28 07:33N 53°28' E 004°60'1110.9
2015-Jun-28 06:33N 53°24' E 004°43'1111.1
2015-Jun-28 05:33N 53°14' E 004°34'1111.2
2015-Jun-28 04:33N 53°04' E 004°25'1010.2
2015-Jun-28 03:33N 52°55' E 004°18'1010.0
2015-Jun-28 02:33N 52°46' E 004°09'1110.5
2015-Jun-28 01:33N 52°37' E 004°00'1010.1
2015-Jun-28 00:33N 52°28' E 003°54'1313.3
2015-Jun-27 23:34N 52°15' E 003°53'1413.6
2015-Jun-27 22:33N 52°01' E 003°58'1010.1
2015-Jun-27 21:33N 51°56' E 004°12'7 7.1
2015-Jun-27 20:34N 51°54' E 004°23'2 1.8
2015-Jun-27 19:33N 51°53' E 004°26'0 0.0
2015-Jun-27 18:33N 51°53' E 004°26'0 0.0
2015-Jun-27 17:33N 51°53' E 004°26'0 0.0
2015-Jun-27 16:33N 51°53' E 004°26'0 0.0
2015-Jun-27 15:33N 51°53' E 004°26'0 0.0
2015-Jun-27 14:33N 51°53' E 004°26'0 0.0
2015-Jun-27 13:33N 51°53' E 004°26'0 0.0
2015-Jun-27 12:33N 51°53' E 004°26'0 0.0
2015-Jun-27 11:33N 51°53' E 004°26'0 0.0
2015-Jun-27 10:33N 51°53' E 004°26'0 0.0
2015-Jun-27 09:33N 51°53' E 004°26'0 0.0
2015-Jun-27 08:33N 51°53' E 004°26'1 0.7
2015-Jun-27 07:33N 51°54' E 004°25'7 6.9
2015-Jun-27 06:34N 51°55' E 004°14'8 8.2
2015-Jun-27 05:34N 51°59' E 004°03'8 8.1
2015-Jun-27 04:34N 52°00' E 003°50'5 4.5
2015-Jun-27 03:31N 51°56' E 003°46'0 0.1
2015-Jun-27 02:31N 51°56' E 003°46'0 0.1
2015-Jun-27 01:31N 51°56' E 003°46'3 3.3
2015-Jun-27 00:34N 51°58' E 003°42'9 9.3
2015-Jun-26 23:33N 51°56' E 003°27'1010.0
2015-Jun-26 22:33N 51°53' E 003°11'1410.6
2015-Jun-26 21:16N 51°49' E 002°50'810.5
2015-Jun-26 20:30N 51°46' E 002°38'1111.0
2015-Jun-26 19:33N 51°39' E 002°27'1211.6
2015-Jun-26 18:34N 51°30' E 002°15'1111.0
2015-Jun-26 17:33N 51°20' E 002°07'1111.1
2015-Jun-26 16:34N 51°11' E 001°56'1211.6
2015-Jun-26 15:33N 51°04' E 001°41'1111.0
2015-Jun-26 14:34N 50°56' E 001°29'1111.2
2015-Jun-26 13:34N 50°46' E 001°24'1110.3
2015-Jun-26 12:31N 50°37' E 001°14'1010.8
2015-Jun-26 11:33N 50°31' E 001°01'1110.8
2015-Jun-26 10:33N 50°27' E 000°45'1110.9
2015-Jun-26 09:32N 50°24' E 000°28'1210.8
2015-Jun-26 08:25N 50°21' E 000°10'1111.0
2015-Jun-26 07:25N 50°18' W 000°07'911.0
2015-Jun-26 06:34N 50°16' W 000°21'1111.1
2015-Jun-26 05:34N 50°12' W 000°38'1110.8
2015-Jun-26 04:34N 50°09' W 000°54'1110.4
2015-Jun-26 03:31N 50°06' W 001°10'1010.9
2015-Jun-26 02:33N 50°03' W 001°26'1111.0
2015-Jun-26 01:34N 50°01' W 001°42'1211.2
2015-Jun-26 00:31N 49°58' W 002°00'1211.5
2015-Jun-25 23:31N 49°56' W 002°18'1111.5
2015-Jun-25 22:33N 49°53' W 002°34'1411.3
2015-Jun-25 21:19N 49°49' W 002°56'912.1
2015-Jun-25 20:33N 49°47' W 003°09'1211.8
2015-Jun-25 19:33N 49°44' W 003°27'1110.7
2015-Jun-25 18:33N 49°41' W 003°43'1111.1
2015-Jun-25 17:34N 49°38' W 003°59'3411.4
2015-Jun-25 14:33N 49°29' W 004°51'7512.3
2015-Jun-25 08:24N 48°58' W 006°35'1112.8
2015-Jun-25 07:34N 48°53' W 006°50'1312.8
2015-Jun-25 06:32N 48°47' W 007°08'1515.1
2015-Jun-25 05:33N 48°40' W 007°28'  
Track history (hours):
 
Tides and Currents Weather Stations Pressure Air Temp Water Temp Dewpoint Dewpoint Depression Visibility Wind Speed Wind Dir Waves Ship Positions

Maersk Nimes

Last reported at 2015-Jul-04 13:33 UTC. Time now 2015-Jul-04 13:37 UTC.
Position N 59°58' E 029°47'.

Length 210 m; draft 10.6 m.

Type: Cargo ship. MMSI: 477559200.

Date/timePositionNaut miles runAvg speedWind from/ knotsBaromVisibWave heightAir tempDewpointWater temp
2015-Jul-04 13:33N 59°58' E 029°47'9 8.6
2015-Jul-04 12:33N 60°01' E 029°31'6410.7
2015-Jul-04 06:33N 60°03' E 027°23'1212.6
2015-Jul-04 05:33N 59°58' E 027°00'1312.8
2015-Jul-04 04:32N 59°59' E 026°34'1513.0
2015-Jul-04 03:25N 59°55' E 026°06'1619.3
2015-Jul-04 02:33N 59°51' E 025°34'4920.6
2015-Jul-04 00:12N 59°39' E 024°01'1420.6
2015-Jul-03 23:32N 59°34' E 023°36'2020.6
2015-Jul-03 22:33N 59°27' E 022°58'2020.3
2015-Jul-03 21:33N 59°18' E 022°23'2620.4
2015-Jul-03 20:18N 59°03' E 021°42'14120.6
2015-Jul-03 13:27N 57°10' E 019°04'1920.5
2015-Jul-03 12:33N 56°55' E 018°43'2020.2
2015-Jul-03 11:33N 56°42' E 018°15'2120.3
2015-Jul-03 10:32N 56°29' E 017°46'6020.2
2015-Jul-03 07:32N 55°54' E 016°17'2020.2
2015-Jul-03 06:33N 55°44' E 015°46'2020.5
2015-Jul-03 05:34N 55°35' E 015°14'2020.4
2015-Jul-03 04:34N 55°26' E 014°42'2020.3
2015-Jul-03 03:34N 55°10' E 014°20'1919.3
2015-Jul-03 02:34N 54°59' E 013°52'2020.0
2015-Jul-03 01:34N 54°52' E 013°19'2019.7
2015-Jul-03 00:34N 54°46' E 012°47'1818.4
2015-Jul-02 23:34N 54°37' E 012°19'1413.9
2015-Jul-02 22:34N 54°25' E 012°06'1818.5
2015-Jul-02 21:34N 54°28' E 011°35'1818.4
2015-Jul-02 20:34N 54°35' E 011°05'1515.0
2015-Jul-02 19:34N 54°46' E 010°48'1616.0
2015-Jul-02 18:33N 55°01' E 010°59'1515.4
2015-Jul-02 17:33N 55°16' E 011°04'1817.8
2015-Jul-02 16:31N 55°33' E 010°50'1717.5
2015-Jul-02 15:33N 55°50' E 010°48'3718.4
2015-Jul-02 13:33N 56°20' E 011°25'1919.0
2015-Jul-02 12:33N 56°36' E 011°42'1817.8
2015-Jul-02 11:33N 56°54' E 011°46'1919.1
2015-Jul-02 10:33N 57°12' E 011°34'1918.8
2015-Jul-02 09:33N 57°29' E 011°19'1918.7
2015-Jul-02 08:33N 57°42' E 010°54'1414.1
2015-Jul-02 07:33N 57°47' E 010°29'1616.4
2015-Jul-02 06:33N 57°46' E 009°59'1716.7
2015-Jul-02 05:33N 57°43' E 009°28'1918.8
2015-Jul-02 04:33N 57°33' E 008°58'1919.1
2015-Jul-02 03:33N 57°21' E 008°30'14617.6
2015-Jul-01 19:18N 55°08' E 006°47'3318.9
2015-Jul-01 17:33N 54°37' E 007°08'1918.7
2015-Jul-01 16:33N 54°21' E 007°23'1817.7
2015-Jul-01 15:33N 54°04' E 007°35'2013.8
2015-Jul-01 14:07N 53°51' E 008°01'915.2
2015-Jul-01 13:33N 53°46' E 008°12'1414.1
2015-Jul-01 12:34N 53°37' E 008°30'1 1.4
2015-Jul-01 11:29N 53°35' E 008°31'0 0.0
2015-Jul-01 10:33N 53°35' E 008°31'0 0.0
2015-Jul-01 09:23N 53°35' E 008°31'0 0.0
2015-Jul-01 08:32N 53°35' E 008°31'0 0.0
2015-Jul-01 07:32N 53°35' E 008°31'0 0.0
2015-Jul-01 06:05N 53°35' E 008°31'0 0.0
2015-Jul-01 05:33N 53°35' E 008°31'0 0.0
2015-Jul-01 04:24N 53°35' E 008°31'0 0.0
2015-Jul-01 03:33N 53°35' E 008°31'0 0.0
2015-Jul-01 02:29N 53°35' E 008°31'0 0.0
2015-Jul-01 01:33N 53°35' E 008°31'0 0.0
2015-Jul-01 00:33N 53°35' E 008°31'0 0.0
2015-Jun-30 23:33N 53°35' E 008°31'0 0.0
2015-Jun-30 22:33N 53°35' E 008°31'0 0.0
2015-Jun-30 21:22N 53°35' E 008°31'0 0.0
2015-Jun-30 20:22N 53°35' E 008°31'0 0.0
2015-Jun-30 18:27N 53°35' E 008°31'0 0.0
2015-Jun-30 17:33N 53°35' E 008°31'0 0.0
2015-Jun-30 16:33N 53°35' E 008°31'0 0.0
2015-Jun-30 15:25N 53°35' E 008°31'0 0.0
2015-Jun-30 14:24N 53°35' E 008°31'0 0.0
2015-Jun-30 13:34N 53°35' E 008°31'1 1.0
2015-Jun-30 12:33N 53°36' E 008°30'1211.9
2015-Jun-30 11:33N 53°44' E 008°15'23 6.9
2015-Jun-30 08:10N 53°54' E 007°39'5 7.5
2015-Jun-30 07:34N 53°58' E 007°38'9 8.7
2015-Jun-30 06:33N 54°01' E 007°52'1010.4
2015-Jun-30 05:34N 54°01' E 008°09'1212.0
2015-Jun-30 04:34N 53°59' E 008°30'1413.6
2015-Jun-30 03:34N 53°50' E 008°48'1413.8
2015-Jun-30 02:33N 53°53' E 009°11'1312.8
2015-Jun-30 01:33N 53°44' E 009°27'1110.9
2015-Jun-30 00:34N 53°35' E 009°37'9 9.3
2015-Jun-29 23:33N 53°33' E 009°52'5 4.5
2015-Jun-29 22:33N 53°32' E 009°60'0 0.0
2015-Jun-29 21:32N 53°32' E 009°60'0 0.0
2015-Jun-29 20:28N 53°32' E 009°60'0 0.0
2015-Jun-29 19:32N 53°32' E 009°60'0 0.0
2015-Jun-29 18:32N 53°32' E 009°60'0 0.0
2015-Jun-29 17:32N 53°32' E 009°60'0 0.0
2015-Jun-29 16:32N 53°32' E 009°60'0 0.0
2015-Jun-29 15:32N 53°32' E 009°60'0 0.0
2015-Jun-29 14:32N 53°32' E 009°60'0 0.0
2015-Jun-29 13:32N 53°32' E 009°60'0 0.0
2015-Jun-29 12:28N 53°32' E 009°60'0 0.0
2015-Jun-29 11:32N 53°32' E 009°60'0 0.0
2015-Jun-29 10:32N 53°32' E 009°60'0 0.0
2015-Jun-29 09:29N 53°32' E 009°60'0 0.0
2015-Jun-29 05:28N 53°32' E 009°60'0 0.0
2015-Jun-29 04:28N 53°32' E 009°60'0 0.0
2015-Jun-29 03:29N 53°32' E 009°60'0 0.0
2015-Jun-29 02:22N 53°32' E 009°60'0 0.0
2015-Jun-29 01:32N 53°32' E 009°60'0 0.0
2015-Jun-29 00:32N 53°32' E 009°60'2 1.6
2015-Jun-28 23:33N 53°33' E 009°57'9 9.4
2015-Jun-28 22:33N 53°34' E 009°42'1312.6
2015-Jun-28 21:33N 53°43' E 009°28'1514.5
2015-Jun-28 20:33N 53°53' E 009°09'1313.4
2015-Jun-28 19:33N 53°51' E 008°47'1515.4
2015-Jun-28 18:33N 53°59' E 008°24'1212.4
2015-Jun-28 17:33N 53°59' E 008°03'4511.1
2015-Jun-28 13:31N 53°49' E 006°50'1111.7
2015-Jun-28 12:32N 53°46' E 006°31'1211.5
2015-Jun-28 11:32N 53°43' E 006°12'1111.4
2015-Jun-28 10:33N 53°40' E 005°54'1111.5
2015-Jun-28 09:33N 53°36' E 005°36'1111.4
2015-Jun-28 08:33N 53°32' E 005°18'1111.4
2015-Jun-28 07:33N 53°28' E 004°60'1110.9
2015-Jun-28 06:33N 53°24' E 004°43'1111.1
2015-Jun-28 05:33N 53°14' E 004°34'1111.2
2015-Jun-28 04:33N 53°04' E 004°25'1010.2
2015-Jun-28 03:33N 52°55' E 004°18'1010.0
2015-Jun-28 02:33N 52°46' E 004°09'1110.5
2015-Jun-28 01:33N 52°37' E 004°00'1010.1
2015-Jun-28 00:33N 52°28' E 003°54'1313.3
2015-Jun-27 23:34N 52°15' E 003°53'1413.6
2015-Jun-27 22:33N 52°01' E 003°58'1010.1
2015-Jun-27 21:33N 51°56' E 004°12'7 7.1
2015-Jun-27 20:34N 51°54' E 004°23'2 1.8
2015-Jun-27 19:33N 51°53' E 004°26'0 0.0
2015-Jun-27 18:33N 51°53' E 004°26'0 0.0
2015-Jun-27 17:33N 51°53' E 004°26'0 0.0
2015-Jun-27 16:33N 51°53' E 004°26'0 0.0
2015-Jun-27 15:33N 51°53' E 004°26'0 0.0
2015-Jun-27 14:33N 51°53' E 004°26'0 0.0
2015-Jun-27 13:33N 51°53' E 004°26'0 0.0
2015-Jun-27 12:33N 51°53' E 004°26'0 0.0
2015-Jun-27 11:33N 51°53' E 004°26'0 0.0
2015-Jun-27 10:33N 51°53' E 004°26'0 0.0
2015-Jun-27 09:33N 51°53' E 004°26'0 0.0
2015-Jun-27 08:33N 51°53' E 004°26'1 0.7
2015-Jun-27 07:33N 51°54' E 004°25'7 6.9
2015-Jun-27 06:34N 51°55' E 004°14'8 8.2
2015-Jun-27 05:34N 51°59' E 004°03'8 8.1
2015-Jun-27 04:34N 52°00' E 003°50'5 4.5
2015-Jun-27 03:31N 51°56' E 003°46'0 0.1
2015-Jun-27 02:31N 51°56' E 003°46'0 0.1
2015-Jun-27 01:31N 51°56' E 003°46'3 3.3
2015-Jun-27 00:34N 51°58' E 003°42'9 9.3
2015-Jun-26 23:33N 51°56' E 003°27'1010.0
2015-Jun-26 22:33N 51°53' E 003°11'1410.6
2015-Jun-26 21:16N 51°49' E 002°50'810.5
2015-Jun-26 20:30N 51°46' E 002°38'1111.0
2015-Jun-26 19:33N 51°39' E 002°27'1211.6
2015-Jun-26 18:34N 51°30' E 002°15'1111.0
2015-Jun-26 17:33N 51°20' E 002°07'1111.1
2015-Jun-26 16:34N 51°11' E 001°56'1211.6
2015-Jun-26 15:33N 51°04' E 001°41'1111.0
2015-Jun-26 14:34N 50°56' E 001°29'1111.2
2015-Jun-26 13:34N 50°46' E 001°24'1110.3
2015-Jun-26 12:31N 50°37' E 001°14'1010.8
2015-Jun-26 11:33N 50°31' E 001°01'1110.8
2015-Jun-26 10:33N 50°27' E 000°45'1110.9
2015-Jun-26 09:32N 50°24' E 000°28'1210.8
2015-Jun-26 08:25N 50°21' E 000°10'1111.0
2015-Jun-26 07:25N 50°18' W 000°07'911.0
2015-Jun-26 06:34N 50°16' W 000°21'1111.1
2015-Jun-26 05:34N 50°12' W 000°38'1110.8
2015-Jun-26 04:34N 50°09' W 000°54'1110.4
2015-Jun-26 03:31N 50°06' W 001°10'1010.9
2015-Jun-26 02:33N 50°03' W 001°26'1111.0
2015-Jun-26 01:34N 50°01' W 001°42'1211.2
2015-Jun-26 00:31N 49°58' W 002°00'1211.5
2015-Jun-25 23:31N 49°56' W 002°18'1111.5
2015-Jun-25 22:33N 49°53' W 002°34'1411.3
2015-Jun-25 21:19N 49°49' W 002°56'912.1
2015-Jun-25 20:33N 49°47' W 003°09'1211.8
2015-Jun-25 19:33N 49°44' W 003°27'1110.7
2015-Jun-25 18:33N 49°41' W 003°43'1111.1
2015-Jun-25 17:34N 49°38' W 003°59'3411.4
2015-Jun-25 14:33N 49°29' W 004°51'7512.3
2015-Jun-25 08:24N 48°58' W 006°35'1112.8
2015-Jun-25 07:34N 48°53' W 006°50'1312.8
2015-Jun-25 06:32N 48°47' W 007°08'1515.1
2015-Jun-25 05:33N 48°40' W 007°28'  

Dump ship's entire track history